sensor_id;sensor_type;location;lat;lon;timestamp;temperature;humidity
75517;DHT22;64097;52.548;13.406;2023-07-28T06:02:46;22.90;73.70
75517;DHT22;64097;52.548;13.406;2023-07-28T06:05:12;22.90;73.70
75517;DHT22;64097;52.548;13.406;2023-07-28T06:07:38;22.90;73.80
75517;DHT22;64097;52.548;13.406;2023-07-28T06:10:04;22.90;73.90
75517;DHT22;64097;52.548;13.406;2023-07-28T06:12:30;22.90;73.90
75517;DHT22;64097;52.548;13.406;2023-07-28T06:14:56;22.90;73.90
75517;DHT22;64097;52.548;13.406;2023-07-28T06:17:21;22.90;73.90
75517;DHT22;64097;52.548;13.406;2023-07-28T06:19:47;22.90;73.90
75517;DHT22;64097;52.548;13.406;2023-07-28T06:22:13;22.90;73.90
75517;DHT22;64097;52.548;13.406;2023-07-28T06:24:38;22.90;74.00
75517;DHT22;64097;52.548;13.406;2023-07-28T06:27:04;22.90;73.90
75517;DHT22;64097;52.548;13.406;2023-07-28T06:29:33;22.90;74.00
75517;DHT22;64097;52.548;13.406;2023-07-28T06:31:59;22.90;74.10
75517;DHT22;64097;52.548;13.406;2023-07-28T06:34:25;22.90;74.10
75517;DHT22;64097;52.548;13.406;2023-07-28T06:36:50;22.90;74.10
75517;DHT22;64097;52.548;13.406;2023-07-28T06:39:16;22.90;74.10
75517;DHT22;64097;52.548;13.406;2023-07-28T06:41:42;22.90;74.10
75517;DHT22;64097;52.548;13.406;2023-07-28T06:44:07;22.90;74.20
75517;DHT22;64097;52.548;13.406;2023-07-28T06:46:33;23.00;74.30
75517;DHT22;64097;52.548;13.406;2023-07-28T06:48:59;22.90;74.30
75517;DHT22;64097;52.548;13.406;2023-07-28T06:51:25;23.00;74.20
75517;DHT22;64097;52.548;13.406;2023-07-28T06:53:51;23.00;74.20
75517;DHT22;64097;52.548;13.406;2023-07-28T06:56:17;23.00;74.20
75517;DHT22;64097;52.548;13.406;2023-07-28T06:58:43;23.00;74.30
75517;DHT22;64097;52.548;13.406;2023-07-28T07:01:08;23.10;74.30
75517;DHT22;64097;52.548;13.406;2023-07-28T07:03:37;23.10;74.20
75517;DHT22;64097;52.548;13.406;2023-07-28T07:06:03;23.10;74.20
75517;DHT22;64097;52.548;13.406;2023-07-28T07:08:29;23.20;74.40
75517;DHT22;64097;52.548;13.406;2023-07-28T07:10:55;23.20;74.40
75517;DHT22;64097;52.548;13.406;2023-07-28T07:13:21;23.30;74.40
75517;DHT22;64097;52.548;13.406;2023-07-28T07:15:47;23.30;74.30
75517;DHT22;64097;52.548;13.406;2023-07-28T07:18:13;23.40;74.20
75517;DHT22;64097;52.548;13.406;2023-07-28T07:20:38;23.40;74.10
75517;DHT22;64097;52.548;13.406;2023-07-28T07:23:04;23.40;74.90
75517;DHT22;64097;52.548;13.406;2023-07-28T07:25:30;23.50;73.90
75517;DHT22;64097;52.548;13.406;2023-07-28T07:27:56;23.50;73.80
75517;DHT22;64097;52.548;13.406;2023-07-28T07:30:22;23.50;73.70
75517;DHT22;64097;52.548;13.406;2023-07-28T07:32:48;23.50;73.70
75517;DHT22;64097;52.548;13.406;2023-07-28T07:35:14;23.50;73.60
75517;DHT22;64097;52.548;13.406;2023-07-28T07:37:41;23.50;73.50
75517;DHT22;64097;52.548;13.406;2023-07-28T07:40:07;23.50;73.50
75517;DHT22;64097;52.548;13.406;2023-07-28T07:42:48;23.50;73.50
75517;DHT22;64097;52.548;13.406;2023-07-28T07:45:15;23.60;73.80
75517;DHT22;64097;52.548;13.406;2023-07-28T07:47:42;23.60;73.70
75517;DHT22;64097;52.548;13.406;2023-07-28T07:50:09;23.60;73.50
75517;DHT22;64097;52.548;13.406;2023-07-28T07:52:36;23.60;73.60
75517;DHT22;64097;52.548;13.406;2023-07-28T07:55:02;23.70;73.80
75517;DHT22;64097;52.548;13.406;2023-07-28T07:57:29;23.70;73.90
75517;DHT22;64097;52.548;13.406;2023-07-28T07:59:55;23.80;73.80
75517;DHT22;64097;52.548;13.406;2023-07-28T08:02:21;23.80;73.70
75517;DHT22;64097;52.548;13.406;2023-07-28T08:04:46;23.90;73.60
75517;DHT22;64097;52.548;13.406;2023-07-28T08:07:12;23.90;73.60
75517;DHT22;64097;52.548;13.406;2023-07-28T08:09:38;24.00;73.60
75517;DHT22;64097;52.548;13.406;2023-07-28T08:12:04;24.00;73.30
75517;DHT22;64097;52.548;13.406;2023-07-28T08:14:30;24.10;72.80
75517;DHT22;64097;52.548;13.406;2023-07-28T08:16:55;24.10;72.50
75517;DHT22;64097;52.548;13.406;2023-07-28T08:19:21;24.20;72.60
75517;DHT22;64097;52.548;13.406;2023-07-28T08:21:47;24.20;72.30
75517;DHT22;64097;52.548;13.406;2023-07-28T08:24:13;24.20;72.40
75517;DHT22;64097;52.548;13.406;2023-07-28T08:26:39;24.20;72.40
75517;DHT22;64097;52.548;13.406;2023-07-28T08:29:04;24.20;72.30
75517;DHT22;64097;52.548;13.406;2023-07-28T08:31:31;24.30;71.60
75517;DHT22;64097;52.548;13.406;2023-07-28T08:33:57;24.30;71.70
75517;DHT22;64097;52.548;13.406;2023-07-28T08:36:22;24.30;71.60
75517;DHT22;64097;52.548;13.406;2023-07-28T08:38:48;24.30;71.60
75517;DHT22;64097;52.548;13.406;2023-07-28T08:41:14;24.30;71.50
75517;DHT22;64097;52.548;13.406;2023-07-28T08:43:40;24.30;71.70
75517;DHT22;64097;52.548;13.406;2023-07-28T08:46:06;24.30;71.90
75517;DHT22;64097;52.548;13.406;2023-07-28T08:48:31;24.30;72.20
75517;DHT22;64097;52.548;13.406;2023-07-28T08:50:57;24.30;72.20
75517;DHT22;64097;52.548;13.406;2023-07-28T08:53:23;24.40;72.20
75517;DHT22;64097;52.548;13.406;2023-07-28T08:55:48;24.40;72.10
75517;DHT22;64097;52.548;13.406;2023-07-28T08:58:23;24.40;72.20
75517;DHT22;64097;52.548;13.406;2023-07-28T09:00:52;24.50;71.90
75517;DHT22;64097;52.548;13.406;2023-07-28T09:03:18;24.50;71.10
75517;DHT22;64097;52.548;13.406;2023-07-28T09:05:44;24.50;70.90
75517;DHT22;64097;52.548;13.406;2023-07-28T09:08:15;24.50;70.70
75517;DHT22;64097;52.548;13.406;2023-07-28T09:10:46;24.50;70.40
75517;DHT22;64097;52.548;13.406;2023-07-28T09:13:17;24.50;70.40
75517;DHT22;64097;52.548;13.406;2023-07-28T09:15:43;24.50;70.40
75517;DHT22;64097;52.548;13.406;2023-07-28T09:18:10;24.50;70.60
75517;DHT22;64097;52.548;13.406;2023-07-28T09:20:37;24.50;70.70
75517;DHT22;64097;52.548;13.406;2023-07-28T09:23:04;24.50;70.80
75517;DHT22;64097;52.548;13.406;2023-07-28T09:25:31;24.50;70.60
75517;DHT22;64097;52.548;13.406;2023-07-28T09:27:57;24.50;70.40
75517;DHT22;64097;52.548;13.406;2023-07-28T09:30:24;24.60;70.40
75517;DHT22;64097;52.548;13.406;2023-07-28T09:32:55;24.60;70.40
75517;DHT22;64097;52.548;13.406;2023-07-28T09:35:22;24.60;70.50
75517;DHT22;64097;52.548;13.406;2023-07-28T09:37:49;24.50;70.70
75517;DHT22;64097;52.548;13.406;2023-07-28T09:40:21;24.50;71.00
75517;DHT22;64097;52.548;13.406;2023-07-28T09:42:48;24.50;71.40
75517;DHT22;64097;52.548;13.406;2023-07-28T09:45:19;24.60;71.50
75517;DHT22;64097;52.548;13.406;2023-07-28T09:47:46;24.60;71.60
75517;DHT22;64097;52.548;13.406;2023-07-28T09:50:15;24.70;71.60
75517;DHT22;64097;52.548;13.406;2023-07-28T09:52:46;24.70;71.60
75517;DHT22;64097;52.548;13.406;2023-07-28T09:55:12;24.70;71.60
75517;DHT22;64097;52.548;13.406;2023-07-28T09:57:50;24.70;71.60
75517;DHT22;64097;52.548;13.406;2023-07-28T10:00:17;24.70;71.40
75517;DHT22;64097;52.548;13.406;2023-07-28T10:02:44;24.80;71.60
75517;DHT22;64097;52.548;13.406;2023-07-28T10:05:10;24.90;71.10
75517;DHT22;64097;52.548;13.406;2023-07-28T10:07:39;24.90;71.10
75517;DHT22;64097;52.548;13.406;2023-07-28T10:10:07;25.00;70.90
75517;DHT22;64097;52.548;13.406;2023-07-28T10:12:42;25.00;70.80
75517;DHT22;64097;52.548;13.406;2023-07-28T10:15:13;25.00;70.40
75517;DHT22;64097;52.548;13.406;2023-07-28T10:17:54;25.00;70.60
75517;DHT22;64097;52.548;13.406;2023-07-28T10:25:32;25.20;70.70
75517;DHT22;64097;52.548;13.406;2023-07-28T10:27:59;25.30;70.70
75517;DHT22;64097;52.548;13.406;2023-07-28T10:30:24;25.30;70.40
75517;DHT22;64097;52.548;13.406;2023-07-28T10:32:50;25.30;70.20
75517;DHT22;64097;52.548;13.406;2023-07-28T10:37:47;25.30;69.60
75517;DHT22;64097;52.548;13.406;2023-07-28T10:42:48;25.30;69.40
75517;DHT22;64097;52.548;13.406;2023-07-28T10:45:15;25.30;69.50
75517;DHT22;64097;52.548;13.406;2023-07-28T10:47:41;25.30;69.90
75517;DHT22;64097;52.548;13.406;2023-07-28T10:50:12;25.30;70.10
75517;DHT22;64097;52.548;13.406;2023-07-28T10:52:44;25.30;69.60
75517;DHT22;64097;52.548;13.406;2023-07-28T10:55:21;25.30;69.70
75517;DHT22;64097;52.548;13.406;2023-07-28T10:57:49;25.40;69.90
75517;DHT22;64097;52.548;13.406;2023-07-28T11:00:17;25.40;69.60
75517;DHT22;64097;52.548;13.406;2023-07-28T11:05:14;25.30;69.40
75517;DHT22;64097;52.548;13.406;2023-07-28T11:07:43;25.30;69.40
75517;DHT22;64097;52.548;13.406;2023-07-28T11:10:13;25.30;69.50
75517;DHT22;64097;52.548;13.406;2023-07-28T11:12:46;25.20;69.80
75517;DHT22;64097;52.548;13.406;2023-07-28T11:15:13;25.20;69.80
75517;DHT22;64097;52.548;13.406;2023-07-28T11:17:45;25.10;69.40
75517;DHT22;64097;52.548;13.406;2023-07-28T11:20:21;25.10;69.50
75517;DHT22;64097;52.548;13.406;2023-07-28T11:22:53;25.10;69.70
75517;DHT22;64097;52.548;13.406;2023-07-28T11:25:20;25.10;69.80
75517;DHT22;64097;52.548;13.406;2023-07-28T11:27:47;25.00;70.40
75517;DHT22;64097;52.548;13.406;2023-07-28T11:30:17;25.00;70.50
75517;DHT22;64097;52.548;13.406;2023-07-28T11:32:44;24.90;70.60
75517;DHT22;64097;52.548;13.406;2023-07-28T11:35:12;24.90;71.00
75517;DHT22;64097;52.548;13.406;2023-07-28T11:37:40;24.90;71.30
75517;DHT22;64097;52.548;13.406;2023-07-28T11:40:07;24.90;71.40
75517;DHT22;64097;52.548;13.406;2023-07-28T11:42:37;24.90;71.40
75517;DHT22;64097;52.548;13.406;2023-07-28T11:45:04;24.80;71.40
75517;DHT22;64097;52.548;13.406;2023-07-28T11:47:30;24.80;71.60
75517;DHT22;64097;52.548;13.406;2023-07-28T11:49:56;24.80;71.70
75517;DHT22;64097;52.548;13.406;2023-07-28T11:52:34;24.90;71.90
75517;DHT22;64097;52.548;13.406;2023-07-28T11:55:05;24.90;72.20
75517;DHT22;64097;52.548;13.406;2023-07-28T11:57:32;24.90;72.40
75517;DHT22;64097;52.548;13.406;2023-07-28T12:00:04;25.00;72.40
75517;DHT22;64097;52.548;13.406;2023-07-28T12:02:31;25.10;72.20
75517;DHT22;64097;52.548;13.406;2023-07-28T12:04:59;25.10;71.90
75517;DHT22;64097;52.548;13.406;2023-07-28T12:07:31;25.10;71.40
75517;DHT22;64097;52.548;13.406;2023-07-28T12:10:05;25.20;71.00
75517;DHT22;64097;52.548;13.406;2023-07-28T12:12:39;25.20;70.90
75517;DHT22;64097;52.548;13.406;2023-07-28T12:15:27;25.20;70.40
75517;DHT22;64097;52.548;13.406;2023-07-28T12:18:13;25.20;70.10
75517;DHT22;64097;52.548;13.406;2023-07-28T12:20:44;25.10;69.40
75517;DHT22;64097;52.548;13.406;2023-07-28T12:23:14;25.10;69.30
75517;DHT22;64097;52.548;13.406;2023-07-28T12:25:41;25.10;69.50
75517;DHT22;64097;52.548;13.406;2023-07-28T12:28:07;25.10;69.40
75517;DHT22;64097;52.548;13.406;2023-07-28T12:30:34;25.10;69.00
75517;DHT22;64097;52.548;13.406;2023-07-28T12:33:00;25.10;69.10
75517;DHT22;64097;52.548;13.406;2023-07-28T12:35:26;25.00;68.90
75517;DHT22;64097;52.548;13.406;2023-07-28T12:37:57;25.00;68.80
75517;DHT22;64097;52.548;13.406;2023-07-28T12:40:26;25.00;68.70
75517;DHT22;64097;52.548;13.406;2023-07-28T12:42:51;25.00;69.00
75517;DHT22;64097;52.548;13.406;2023-07-28T12:45:17;25.00;68.70
75517;DHT22;64097;52.548;13.406;2023-07-28T12:47:43;25.00;68.90
75517;DHT22;64097;52.548;13.406;2023-07-28T12:50:09;25.10;68.70
75517;DHT22;64097;52.548;13.406;2023-07-28T12:52:36;25.00;68.60
75517;DHT22;64097;52.548;13.406;2023-07-28T12:55:02;25.00;68.50
75517;DHT22;64097;52.548;13.406;2023-07-28T12:57:28;25.10;68.70
75517;DHT22;64097;52.548;13.406;2023-07-28T12:59:53;25.10;68.90
75517;DHT22;64097;52.548;13.406;2023-07-28T13:02:19;25.10;68.70
75517;DHT22;64097;52.548;13.406;2023-07-28T13:04:45;25.10;68.50
75517;DHT22;64097;52.548;13.406;2023-07-28T13:07:11;25.10;68.40
75517;DHT22;64097;52.548;13.406;2023-07-28T13:09:36;25.20;68.50
75517;DHT22;64097;52.548;13.406;2023-07-28T13:12:02;25.20;68.70
75517;DHT22;64097;52.548;13.406;2023-07-28T13:14:28;25.30;68.70
75517;DHT22;64097;52.548;13.406;2023-07-28T13:16:54;25.30;68.70
75517;DHT22;64097;52.548;13.406;2023-07-28T13:19:20;25.30;68.50
75517;DHT22;64097;52.548;13.406;2023-07-28T13:21:45;25.40;68.40
75517;DHT22;64097;52.548;13.406;2023-07-28T13:24:11;25.40;68.00
75517;DHT22;64097;52.548;13.406;2023-07-28T13:26:38;25.50;67.80
75517;DHT22;64097;52.548;13.406;2023-07-28T13:29:04;25.50;67.70
75517;DHT22;64097;52.548;13.406;2023-07-28T13:31:32;25.60;67.40
75517;DHT22;64097;52.548;13.406;2023-07-28T13:33:58;25.60;67.40
75517;DHT22;64097;52.548;13.406;2023-07-28T13:36:24;25.70;67.40
75517;DHT22;64097;52.548;13.406;2023-07-28T13:38:49;25.70;67.10
75517;DHT22;64097;52.548;13.406;2023-07-28T13:41:15;25.70;67.10
75517;DHT22;64097;52.548;13.406;2023-07-28T13:43:41;25.70;66.90
75517;DHT22;64097;52.548;13.406;2023-07-28T13:46:07;25.80;66.60
75517;DHT22;64097;52.548;13.406;2023-07-28T13:48:33;25.80;66.80
75517;DHT22;64097;52.548;13.406;2023-07-28T13:51:01;25.80;66.90
75517;DHT22;64097;52.548;13.406;2023-07-28T13:53:27;25.90;67.00
75517;DHT22;64097;52.548;13.406;2023-07-28T13:55:54;25.90;66.80
75517;DHT22;64097;52.548;13.406;2023-07-28T13:58:20;25.90;66.80
